Nord Glory — 3FIA5 — position and weather

sailwx.info

Track history (hours):
 
Tides and Currents Weather Stations Pressure Air Temp Water Temp Dewpoint Dewpoint Depression Visibility Wind Speed Wind Dir Waves Ship Positions

Nord Glory

Last reported at 2017-May-06 15:56 UTC. Time now 2017-May-24 11:50 UTC.
Position N 27°54' W 016°27'.
Warning: this ship's position is 17 days out of date.

Length 190 m; draft 6 m.

Type: Cargo ship. MMSI: 354206000.

Date/timePositionNaut miles runAvg speedWind from/ knotsBaromVisibWave heightAir tempDewpointWater temp
2017-May-06 15:56N 27°54' W 016°27'612.0
2017-May-06 15:26N 27°58' W 016°23'512.1
2017-May-06 15:00N 28°02' W 016°19'612.2
2017-May-06 14:29N 28°07' W 016°15'1511.6
2017-May-06 13:12N 28°19' W 016°04'311.8
2017-May-06 12:58N 28°21' W 016°06'10 1.0
2017-May-06 03:24N 28°29' W 016°11'2 2.9
2017-May-06 02:48N 28°28' W 016°11'2 5.4
2017-May-06 02:30N 28°26' W 016°10'3 5.7
2017-May-06 01:59N 28°25' W 016°07'3 5.6
2017-May-06 01:27N 28°25' W 016°03'1 2.4
2017-May-06 01:00N 28°25' W 016°02'3 4.8
2017-May-06 00:29N 28°24' W 015°59'4 8.0
2017-May-06 00:00N 28°27' W 015°56'6 7.0
2017-May-05 23:05N 28°31' W 015°51'2 7.1
2017-May-05 22:49N 28°33' W 015°49'437 8.5
2017-May-03 19:14N 33°31' W 009°37'2 8.9
2017-May-03 19:00N 33°33' W 009°35'5 9.0
2017-May-03 18:30N 33°35' W 009°31'9 8.7
2017-May-03 17:25N 33°42' W 009°23'55 8.9
2017-May-03 11:19N 34°17' W 008°33'3 9.5
2017-May-03 11:00N 34°19' W 008°30'7 9.6
2017-May-03 10:17N 34°24' W 008°24'17 9.5
2017-May-03 08:28N 34°35' W 008°08'5 9.5
2017-May-03 07:58N 34°38' W 008°04'34 9.4
2017-May-03 04:22N 35°01' W 007°33'4 9.7
2017-May-03 04:00N 35°03' W 007°30'8610.1
2017-May-02 19:32N 35°58' W 006°09'010.0
2017-May-02 19:29N 35°58' W 006°09'510.0
2017-May-02 19:00N 35°58' W 006°03'710.3
2017-May-02 18:17N 35°58' W 005°54'310.7
2017-May-02 17:59N 35°58' W 005°50'611.9
2017-May-02 17:30N 35°58' W 005°43'612.5
2017-May-02 17:00N 35°58' W 005°35'611.5
2017-May-02 16:30N 35°59' W 005°28'611.6
2017-May-02 16:00N 36°01' W 005°21'510.9
2017-May-02 15:30N 36°03' W 005°15'510.3
2017-May-02 15:00N 36°03' W 005°08'5 9.8
2017-May-02 14:27N 36°04' W 005°02'3 0.3
2017-May-02 02:10N 36°01' W 005°02'0 0.6
2017-May-02 01:53N 36°01' W 005°03'0 0.8
2017-May-02 01:18N 36°02' W 005°03'0 1.2
2017-May-02 00:58N 36°02' W 005°03'2 4.9
2017-May-02 00:30N 36°04' W 005°04'4 8.6
2017-May-02 00:00N 36°07' W 005°08'4 7.2
2017-May-01 23:30N 36°09' W 005°12'4 7.0
2017-May-01 23:00N 36°08' W 005°16'0 0.7
2017-May-01 22:30N 36°07' W 005°16'3 5.9
2017-May-01 22:00N 36°09' W 005°13'2 4.9
2017-May-01 21:30N 36°10' W 005°10'5 9.7
2017-May-01 21:00N 36°10' W 005°04'  
Track history (hours):
 
Tides and Currents Weather Stations Pressure Air Temp Water Temp Dewpoint Dewpoint Depression Visibility Wind Speed Wind Dir Waves Ship Positions

Nord Glory

Last reported at 2017-May-06 15:56 UTC. Time now 2017-May-24 11:50 UTC.
Position N 27°54' W 016°27'.
Warning: this ship's position is 17 days out of date.

Length 190 m; draft 6 m.

Type: Cargo ship. MMSI: 354206000.

Date/timePositionNaut miles runAvg speedWind from/ knotsBaromVisibWave heightAir tempDewpointWater temp
2017-May-06 15:56N 27°54' W 016°27'612.0
2017-May-06 15:26N 27°58' W 016°23'512.1
2017-May-06 15:00N 28°02' W 016°19'612.2
2017-May-06 14:29N 28°07' W 016°15'1511.6
2017-May-06 13:12N 28°19' W 016°04'311.8
2017-May-06 12:58N 28°21' W 016°06'10 1.0
2017-May-06 03:24N 28°29' W 016°11'2 2.9
2017-May-06 02:48N 28°28' W 016°11'2 5.4
2017-May-06 02:30N 28°26' W 016°10'3 5.7
2017-May-06 01:59N 28°25' W 016°07'3 5.6
2017-May-06 01:27N 28°25' W 016°03'1 2.4
2017-May-06 01:00N 28°25' W 016°02'3 4.8
2017-May-06 00:29N 28°24' W 015°59'4 8.0
2017-May-06 00:00N 28°27' W 015°56'6 7.0
2017-May-05 23:05N 28°31' W 015°51'2 7.1
2017-May-05 22:49N 28°33' W 015°49'437 8.5
2017-May-03 19:14N 33°31' W 009°37'2 8.9
2017-May-03 19:00N 33°33' W 009°35'5 9.0
2017-May-03 18:30N 33°35' W 009°31'9 8.7
2017-May-03 17:25N 33°42' W 009°23'55 8.9
2017-May-03 11:19N 34°17' W 008°33'3 9.5
2017-May-03 11:00N 34°19' W 008°30'7 9.6
2017-May-03 10:17N 34°24' W 008°24'17 9.5
2017-May-03 08:28N 34°35' W 008°08'5 9.5
2017-May-03 07:58N 34°38' W 008°04'34 9.4
2017-May-03 04:22N 35°01' W 007°33'4 9.7
2017-May-03 04:00N 35°03' W 007°30'8610.1
2017-May-02 19:32N 35°58' W 006°09'010.0
2017-May-02 19:29N 35°58' W 006°09'510.0
2017-May-02 19:00N 35°58' W 006°03'710.3
2017-May-02 18:17N 35°58' W 005°54'310.7
2017-May-02 17:59N 35°58' W 005°50'611.9
2017-May-02 17:30N 35°58' W 005°43'612.5
2017-May-02 17:00N 35°58' W 005°35'611.5
2017-May-02 16:30N 35°59' W 005°28'611.6
2017-May-02 16:00N 36°01' W 005°21'510.9
2017-May-02 15:30N 36°03' W 005°15'510.3
2017-May-02 15:00N 36°03' W 005°08'5 9.8
2017-May-02 14:27N 36°04' W 005°02'3 0.3
2017-May-02 02:10N 36°01' W 005°02'0 0.6
2017-May-02 01:53N 36°01' W 005°03'0 0.8
2017-May-02 01:18N 36°02' W 005°03'0 1.2
2017-May-02 00:58N 36°02' W 005°03'2 4.9
2017-May-02 00:30N 36°04' W 005°04'4 8.6
2017-May-02 00:00N 36°07' W 005°08'4 7.2
2017-May-01 23:30N 36°09' W 005°12'4 7.0
2017-May-01 23:00N 36°08' W 005°16'0 0.7
2017-May-01 22:30N 36°07' W 005°16'3 5.9
2017-May-01 22:00N 36°09' W 005°13'2 4.9
2017-May-01 21:30N 36°10' W 005°10'5 9.7
2017-May-01 21:00N 36°10' W 005°04'  

Dump ship's entire track history